Time;durP1;ratioP1;P1;durP2;ratioP2;P2;SDS_P1;SDS_P2;PMS_P1;PMS_P2;Temp;Humidity;BMP_temperature;BMP_pressure;BME280_temperature;BME280_humidity;BME280_pressure;Samples;Min_cycle;Max_cycle;Signal;HPM_P1;HPM_P2
2023/11/14 00:02:11;;;;;;;25.80;4.57;;;;;;;-146.27;72.57;31198.69;5042464;28;20021;-71
2023/11/14 00:04:38;;;;;;;35.72;5.18;;;;;;;-146.27;72.27;31073.78;5045498;28;20063;-70
2023/11/14 00:07:06;;;;;;;27.77;4.40;;;;;;;-146.27;72.84;31194.75;5039255;28;20066;-71
2023/11/14 00:09:34;;;;;;;32.67;4.47;;;;;;;-146.27;72.82;31200.69;5034544;28;20024;-71
2023/11/14 00:12:00;;;;;;;45.50;5.82;;;;;;;-146.27;72.05;31071.78;5026156;28;20482;-72
2023/11/14 00:14:26;;;;;;;29.25;5.63;;;;;;;-146.27;72.35;31105.50;5029302;28;20024;-70
2023/11/14 00:16:51;;;;;;;34.25;4.80;;;;;;;-146.27;72.41;31145.16;5036289;28;20052;-70
2023/11/14 00:19:19;;;;;;;38.40;5.18;;;;;;;-146.27;71.80;31038.09;5035215;28;20086;-70
2023/11/14 00:21:45;;;;;;;30.55;5.00;;;;;;;-146.27;71.61;30994.47;5034479;28;20081;-70
2023/11/14 00:24:10;;;;;;;26.60;4.10;;;;;;;-146.27;71.86;31085.66;5026729;28;20477;-70
2023/11/14 00:26:35;;;;;;;33.20;5.10;;;;;;;-146.27;72.08;31085.66;5033136;28;20532;-71
2023/11/14 00:29:01;;;;;;;34.08;4.75;;;;;;;-146.27;72.80;31143.19;5036387;28;20017;-70
2023/11/14 00:31:27;;;;;;;40.47;5.50;;;;;;;-146.27;72.15;31095.59;5031022;28;20033;-70
2023/11/14 00:33:52;;;;;;;38.75;5.10;;;;;;;-146.27;72.29;31075.75;5035807;28;20382;-70
2023/11/14 00:36:19;;;;;;;31.23;4.85;;;;;;;-146.27;72.57;31157.06;5029528;28;20043;-70
2023/11/14 00:38:44;;;;;;;38.88;4.40;;;;;;;-146.27;72.87;31224.47;5039101;28;20500;-70
2023/11/14 00:41:09;;;;;;;26.60;4.15;;;;;;;-146.27;73.18;31248.28;5027145;28;20052;-70
2023/11/14 00:43:35;;;;;;;48.15;5.70;;;;;;;-146.27;72.22;31109.47;5043586;28;20114;-71
2023/11/14 00:46:00;;;;;;;35.22;4.55;;;;;;;-146.27;71.77;31081.72;5026500;28;20052;-70
2023/11/14 00:48:25;;;;;;;30.52;4.97;;;;;;;-146.27;72.74;31252.25;5028477;28;20021;-69
2023/11/14 00:50:51;;;;;;;33.55;3.97;;;;;;;-146.27;72.40;31165.00;5029946;28;20033;-69
2023/11/14 00:53:16;;;;;;;26.75;3.95;;;;;;;-146.27;72.55;31305.78;5044427;28;20029;-69
2023/11/14 00:55:42;;;;;;;39.10;5.60;;;;;;;-146.27;72.54;31287.94;5026180;28;20022;-71
2023/11/14 00:58:07;;;;;;;35.50;5.22;;;;;;;-146.27;72.02;31157.06;5023424;28;20029;-70
2023/11/14 01:00:33;;;;;;;32.50;4.45;;;;;;;-146.27;71.79;31159.03;5024211;28;20037;-71
2023/11/14 01:03:00;;;;;;;38.15;4.78;;;;;;;-146.27;71.94;31234.41;5043732;28;20029;-71
2023/11/14 01:05:26;;;;;;;37.47;6.03;;;;;;;-146.27;71.90;31081.72;5028287;28;20026;-71
2023/11/14 01:07:53;;;;;;;35.42;6.20;;;;;;;-146.27;72.67;31256.22;5028919;28;20134;-70
2023/11/14 01:10:18;;;;;;;35.88;6.30;;;;;;;-146.27;71.88;31099.56;5036866;28;20423;-71
2023/11/14 01:12:44;;;;;;;25.17;4.90;;;;;;;-146.27;72.32;31274.06;5036957;28;20024;-71
2023/11/14 01:15:10;;;;;;;40.03;5.50;;;;;;;-146.27;71.25;30998.41;5029324;28;20104;-71
2023/11/14 01:17:35;;;;;;;35.83;5.80;;;;;;;-146.27;71.63;31046.00;5022326;28;20510;-70
2023/11/14 01:20:01;;;;;;;34.15;4.38;;;;;;;-146.27;71.77;31117.41;5037427;28;20465;-69
2023/11/14 01:22:26;;;;;;;32.33;5.72;;;;;;;-146.27;72.21;31200.69;5045408;28;20032;-71
2023/11/14 01:24:52;;;;;;;33.22;4.05;;;;;;;-146.27;71.67;31097.56;5030249;28;20101;-70
2023/11/14 01:27:17;;;;;;;32.03;5.57;;;;;;;-146.27;71.67;31081.72;5032584;28;20516;-70
2023/11/14 01:29:47;;;;;;;27.33;4.40;;;;;;;-146.27;71.10;31101.53;5028062;28;20139;-70
2023/11/14 01:32:12;;;;;;;31.02;4.70;;;;;;;-146.27;71.23;31006.34;5037395;28;20032;-70
2023/11/14 01:34:38;;;;;;;33.28;4.80;;;;;;;-146.27;70.37;30948.84;5022411;28;20025;-70
2023/11/14 01:37:03;;;;;;;33.47;4.22;;;;;;;-146.27;71.27;31125.34;5039282;28;20029;-70
2023/11/14 01:39:29;;;;;;;36.22;5.57;;;;;;;-146.27;71.44;31095.59;5040798;28;20037;-70
2023/11/14 01:41:55;;;;;;;32.35;5.07;;;;;;;-146.27;71.30;31155.06;5027821;28;20589;-70
2023/11/14 01:44:20;;;;;;;34.22;5.78;;;;;;;-146.27;71.90;31139.22;5037135;28;20033;-70
2023/11/14 01:46:46;;;;;;;36.60;5.57;;;;;;;-146.27;71.83;31097.56;5031833;28;20078;-70
2023/11/14 01:49:13;;;;;;;31.45;4.72;;;;;;;-146.27;71.72;31042.03;5028380;28;20014;-70
2023/11/14 01:51:42;;;;;;;38.25;6.38;;;;;;;-146.27;71.95;31168.97;5027230;28;20025;-70
2023/11/14 01:54:08;;;;;;;37.50;6.57;;;;;;;-146.27;72.36;31149.13;5017259;28;20033;-70
2023/11/14 01:56:34;;;;;;;36.10;5.55;;;;;;;-146.27;71.38;31014.28;5046618;28;20025;-71
2023/11/14 01:58:59;;;;;;;29.70;4.95;;;;;;;-146.27;71.53;30960.75;5045162;28;20056;-70
2023/11/14 02:01:25;;;;;;;29.35;5.38;;;;;;;-146.27;72.12;31101.53;5031121;28;22345;-70
2023/11/14 02:03:51;;;;;;;27.08;4.80;;;;;;;-146.27;72.72;31163.00;5032321;28;20064;-70
2023/11/14 02:06:17;;;;;;;33.80;5.22;;;;;;;-146.27;72.66;31129.28;5042548;28;20110;-70
2023/11/14 02:08:43;;;;;;;28.20;4.85;;;;;;;-146.27;72.85;31145.16;5029292;28;20028;-70
2023/11/14 02:11:09;;;;;;;31.95;5.40;;;;;;;-146.27;72.57;31121.38;5041589;28;20090;-71
2023/11/14 02:13:34;;;;;;;43.90;4.50;;;;;;;-146.27;72.71;31117.41;5026637;28;20032;-71
2023/11/14 02:15:59;;;;;;;22.85;4.68;;;;;;;-146.27;73.26;31232.41;5037176;28;20067;-71
2023/11/14 02:18:25;;;;;;;29.85;4.50;;;;;;;-146.27;72.60;31135.25;5027553;28;20056;-71
2023/11/14 02:20:51;;;;;;;32.80;4.63;;;;;;;-146.27;72.99;31143.19;5043750;28;20113;-71
2023/11/14 02:23:18;;;;;;;32.90;5.15;;;;;;;-146.27;72.10;31051.97;5036492;28;20401;-71
2023/11/14 02:25:44;;;;;;;40.45;5.40;;;;;;;-146.27;72.28;31079.72;5036056;28;20029;-71
2023/11/14 02:28:10;;;;;;;31.95;5.25;;;;;;;-146.27;72.21;31032.13;5038107;28;20029;-71
2023/11/14 02:30:37;;;;;;;34.20;5.07;;;;;;;-146.27;72.26;31085.66;5041673;28;20033;-71
2023/11/14 02:33:07;;;;;;;28.15;5.32;;;;;;;-146.27;72.41;31165.00;5032371;28;20029;-71
2023/11/14 02:35:32;;;;;;;32.92;4.18;;;;;;;-146.27;71.83;30990.50;5033515;28;20029;-70
2023/11/14 02:37:58;;;;;;;36.70;4.85;;;;;;;-146.27;72.12;31085.66;5032435;28;20033;-70
2023/11/14 02:40:24;;;;;;;42.50;6.35;;;;;;;-146.27;72.38;31139.22;5029866;28;20060;-70
2023/11/14 02:42:53;;;;;;;32.40;4.97;;;;;;;-146.27;71.77;30978.59;5026732;28;20160;-70
2023/11/14 02:45:19;;;;;;;30.70;4.57;;;;;;;-146.27;72.71;31115.41;5016492;28;20067;-70
2023/11/14 02:47:44;;;;;;;40.67;5.80;;;;;;;-146.27;72.22;31016.28;5018862;28;20030;-70
2023/11/14 02:50:29;;;;;;;28.95;5.30;;;;;;;-146.27;72.60;31038.09;5032953;28;20661;-71
2023/11/14 02:52:55;;;;;;;34.72;4.72;;;;;;;-146.27;72.47;31065.84;5031515;28;20714;-70
2023/11/14 02:55:20;;;;;;;36.10;5.32;;;;;;;-146.27;73.04;31143.19;5014177;28;20026;-70
2023/11/14 02:57:46;;;;;;;33.40;4.43;;;;;;;-146.27;73.18;31123.34;5013255;28;20040;-70
2023/11/14 03:00:15;;;;;;;36.50;5.65;;;;;;;-146.27;73.39;31141.19;5019912;28;20371;-70
2023/11/14 03:02:45;;;;;;;33.65;4.35;;;;;;;-146.27;73.45;31121.38;5028904;28;20029;-70
2023/11/14 03:05:11;;;;;;;41.08;6.75;;;;;;;-146.27;73.45;31188.78;5025530;28;20030;-70
2023/11/14 03:07:37;;;;;;;42.17;4.95;;;;;;;-146.27;73.56;31085.66;5012986;28;20061;-70
2023/11/14 03:10:02;;;;;;;39.25;6.05;;;;;;;-146.27;73.60;31180.84;5024545;28;20049;-70
2023/11/14 03:12:29;;;;;;;42.50;5.60;;;;;;;-146.27;73.42;31081.72;5031451;28;20451;-70
2023/11/14 03:14:55;;;;;;;42.30;5.03;;;;;;;-146.27;73.21;31069.81;5031377;28;20533;-70
2023/11/14 03:17:20;;;;;;;39.22;5.57;;;;;;;-146.27;73.31;31137.22;5031420;28;20060;-70
2023/11/14 03:19:47;;;;;;;28.83;5.90;;;;;;;-146.27;72.70;30998.41;5031860;28;20041;-70
2023/11/14 03:22:12;;;;;;;30.95;4.65;;;;;;;-146.27;73.53;31200.69;5030706;28;20029;-70
2023/11/14 03:24:39;;;;;;;32.72;4.03;;;;;;;-146.27;73.64;31149.13;5019596;28;20033;-71
2023/11/14 03:27:05;;;;;;;36.00;4.72;;;;;;;-146.27;73.45;31161.03;5032040;28;20075;-70
2023/11/14 03:29:32;;;;;;;33.63;5.80;;;;;;;-146.27;73.79;31155.06;5031902;28;20056;-70
2023/11/14 03:31:57;;;;;;;27.98;5.10;;;;;;;-146.27;73.49;31101.53;5024421;28;20068;-70
2023/11/14 03:34:22;;;;;;;38.28;5.53;;;;;;;-146.27;73.04;31038.09;5030130;28;20036;-70
2023/11/14 03:36:56;;;;;;;38.40;4.70;;;;;;;-146.27;73.04;31028.16;5032164;28;20425;-71
2023/11/14 03:39:22;;;;;;;34.67;4.68;;;;;;;-146.27;73.33;31046.00;5030507;28;20999;-70
2023/11/14 03:41:48;;;;;;;42.13;6.25;;;;;;;-146.27;73.22;31079.72;5030825;28;20029;-71
2023/11/14 03:44:13;;;;;;;39.63;5.82;;;;;;;-146.27;73.86;31127.31;5030385;28;20032;-71
2023/11/14 03:46:38;;;;;;;38.97;6.43;;;;;;;-146.27;74.76;31268.13;5012930;28;20044;-72
2023/11/14 03:49:04;;;;;;;41.30;4.90;;;;;;;-146.27;74.08;31157.06;5014015;28;20473;-71
2023/11/14 03:51:30;;;;;;;35.22;5.25;;;;;;;-146.27;73.78;31109.47;5031642;28;20025;-71
2023/11/14 03:53:55;;;;;;;42.10;5.80;;;;;;;-146.27;73.73;31141.19;5031701;28;20026;-70
2023/11/14 03:56:21;;;;;;;26.65;3.97;;;;;;;-146.27;73.35;31079.72;5031463;28;20029;-70
2023/11/14 03:58:49;;;;;;;29.15;5.10;;;;;;;-146.27;73.50;31101.53;5029103;28;20036;-70
2023/11/14 04:01:14;;;;;;;39.58;4.93;;;;;;;-146.27;73.98;31174.91;5028912;28;20022;-70
2023/11/14 04:03:40;;;;;;;32.75;5.18;;;;;;;-146.27;73.69;31176.88;5023790;28;20036;-70
2023/11/14 04:06:09;;;;;;;30.58;4.07;;;;;;;-146.27;73.92;31137.22;5031571;28;20025;-70
2023/11/14 04:08:35;;;;;;;31.15;4.25;;;;;;;-146.27;73.76;31129.28;5028993;28;20033;-71
2023/11/14 04:11:00;;;;;;;30.67;4.25;;;;;;;-146.27;74.13;31168.97;5031281;28;20018;-70
2023/11/14 04:13:25;;;;;;;34.05;5.32;;;;;;;-146.27;73.66;31101.53;5031133;28;20064;-70
2023/11/14 04:15:51;;;;;;;32.45;5.43;;;;;;;-146.27;74.30;31168.97;5029416;28;20116;-71
2023/11/14 04:18:17;;;;;;;29.85;5.10;;;;;;;-146.27;74.18;31174.91;5018224;28;20085;-71
2023/11/14 04:20:43;;;;;;;38.88;5.18;;;;;;;-146.27;73.64;31046.00;5024747;28;20132;-71
2023/11/14 04:23:08;;;;;;;31.30;5.97;;;;;;;-146.27;74.20;31145.16;5031335;28;20500;-72
2023/11/14 04:25:34;;;;;;;40.60;6.05;;;;;;;-146.27;75.31;31212.59;5031003;28;20031;-71
2023/11/14 04:28:00;;;;;;;33.08;5.30;;;;;;;-146.27;74.76;31107.47;5022972;28;20465;-71
2023/11/14 04:30:25;;;;;;;44.47;5.82;;;;;;;-146.27;74.52;31147.16;5022042;28;20021;-71
2023/11/14 04:32:51;;;;;;;27.25;5.82;;;;;;;-146.27;75.02;31256.22;5031772;28;20029;-70
2023/11/14 04:35:16;;;;;;;31.02;5.07;;;;;;;-146.27;74.82;31163.00;5030848;28;20183;-70
2023/11/14 04:37:41;;;;;;;41.72;5.20;;;;;;;-146.27;74.07;31097.56;5030652;28;20034;-71
2023/11/14 04:40:09;;;;;;;24.95;4.53;;;;;;;-146.27;75.26;31250.25;5030671;28;20492;-71
2023/11/14 04:42:34;;;;;;;34.80;6.18;;;;;;;-146.27;75.09;31238.38;5030798;28;20029;-70
2023/11/14 04:45:00;;;;;;;44.83;5.93;;;;;;;-146.27;74.60;31212.59;5025784;28;20024;-70
2023/11/14 04:47:25;;;;;;;39.58;5.22;;;;;;;-146.27;75.28;31224.47;5013866;28;20109;-70
2023/11/14 04:49:52;;;;;;;32.00;4.90;;;;;;;-146.27;75.40;31248.28;5011097;28;20426;-71
2023/11/14 04:52:19;;;;;;;40.28;4.93;;;;;;;-146.27;74.14;31051.97;5011038;28;20026;-71
2023/11/14 04:54:45;;;;;;;27.63;4.32;;;;;;;-146.27;74.99;31240.34;5010944;28;20022;-71
2023/11/14 04:57:10;;;;;;;36.13;5.85;;;;;;;-146.27;75.68;31283.97;5016649;28;20556;-70
2023/11/14 04:59:36;;;;;;;26.67;4.55;;;;;;;-146.27;75.51;31166.97;5014854;28;20028;-70
2023/11/14 05:02:01;;;;;;;34.95;4.95;;;;;;;-146.27;74.19;31061.88;5020558;28;20025;-70
2023/11/14 05:04:26;;;;;;;39.03;5.22;;;;;;;-146.27;74.67;31176.88;5024891;28;20624;-70
2023/11/14 05:06:52;;;;;;;27.55;4.65;;;;;;;-146.27;74.19;31085.66;5029999;28;20033;-70
2023/11/14 05:09:17;;;;;;;47.83;6.40;;;;;;;-146.27;74.80;31216.56;5030384;28;20017;-70
2023/11/14 05:11:43;;;;;;;35.92;4.50;;;;;;;-146.27;74.85;31143.19;5025298;28;20032;-70
2023/11/14 05:14:08;;;;;;;42.50;5.57;;;;;;;-146.27;74.93;31186.81;5010677;28;20032;-70
2023/11/14 05:16:40;;;;;;;37.38;5.32;;;;;;;-146.27;74.03;31069.81;5027329;28;20087;-70
2023/11/14 05:19:07;;;;;;;38.50;5.15;;;;;;;-146.27;74.33;31159.03;5030470;28;20032;-70
2023/11/14 05:21:33;;;;;;;36.75;4.97;;;;;;;-146.27;74.94;31248.28;5030575;28;20503;-70
2023/11/14 05:23:59;;;;;;;35.35;5.03;;;;;;;-146.27;73.88;31022.22;5030258;28;20104;-70
2023/11/14 05:26:24;;;;;;;36.47;5.35;;;;;;;-146.27;74.50;31170.94;5020440;28;20109;-71
2023/11/14 05:28:49;;;;;;;39.13;5.18;;;;;;;-146.27;73.79;31141.19;5029520;28;20139;-70
2023/11/14 05:31:15;;;;;;;35.75;5.07;;;;;;;-146.27;74.17;31151.09;5029052;28;20068;-71
2023/11/14 05:33:41;;;;;;;39.13;4.90;;;;;;;-146.27;74.40;31149.13;5011327;28;20095;-70
2023/11/14 05:36:07;;;;;;;30.00;5.18;;;;;;;-146.27;74.49;31238.38;5024717;28;20583;-70
2023/11/14 05:38:32;;;;;;;42.55;6.70;;;;;;;-146.27;74.07;31166.97;5029828;28;20021;-70
2023/11/14 05:40:58;;;;;;;41.97;6.78;;;;;;;-146.27;73.22;31061.88;5033084;28;20482;-70
2023/11/14 05:43:28;;;;;;;38.45;4.40;;;;;;;-146.27;74.19;31172.94;5029948;28;20026;-70
2023/11/14 05:45:54;;;;;;;43.90;5.00;;;;;;;-146.27;74.64;31214.56;5029211;28;20508;-70
2023/11/14 05:48:20;;;;;;;39.20;5.20;;;;;;;-146.27;73.98;31163.00;5029319;28;20037;-70
2023/11/14 05:50:49;;;;;;;32.15;5.00;;;;;;;-146.27;74.13;31149.13;5030104;28;20025;-70
2023/11/14 05:53:18;;;;;;;40.00;6.25;;;;;;;-146.27;73.97;31125.34;5030124;28;20468;-70
2023/11/14 05:55:44;;;;;;;28.77;4.35;;;;;;;-146.27;74.64;31240.34;5015844;28;20037;-70
2023/11/14 05:58:10;;;;;;;41.00;4.53;;;;;;;-146.27;74.38;31192.75;5029881;28;20116;-70
2023/11/14 06:00:36;;;;;;;26.27;4.40;;;;;;;-146.27;74.14;31168.97;5033677;28;20374;-71
2023/11/14 06:03:02;;;;;;;30.38;4.75;;;;;;;-146.27;73.90;31073.78;5030928;28;20076;-70
2023/11/14 06:05:28;;;;;;;34.35;4.95;;;;;;;-146.27;74.87;31208.63;5030628;28;20052;-70
2023/11/14 06:07:54;;;;;;;36.78;4.70;;;;;;;-146.27;74.51;31192.75;5027466;28;20466;-71
2023/11/14 06:10:19;;;;;;;25.88;4.68;;;;;;;-146.27;75.17;31319.66;5032189;28;20025;-70
2023/11/14 06:12:44;;;;;;;41.40;5.25;;;;;;;-146.27;74.74;31192.75;5032055;28;20033;-70
2023/11/14 06:15:10;;;;;;;27.80;4.57;;;;;;;-146.27;74.01;31113.44;5023052;28;20029;-71
2023/11/14 06:17:35;;;;;;;26.27;4.32;;;;;;;-146.27;73.78;31133.25;5020358;28;20049;-71
2023/11/14 06:20:05;;;;;;;25.42;4.85;;;;;;;-146.27;74.43;31202.66;5030933;28;20094;-70
2023/11/14 06:22:31;;;;;;;34.50;4.40;;;;;;;-146.27;73.49;31042.03;5036970;28;20125;-70
2023/11/14 06:24:57;;;;;;;35.78;4.85;;;;;;;-146.27;74.55;31260.19;5026214;28;20036;-71
2023/11/14 06:27:22;;;;;;;38.33;5.55;;;;;;;-146.27;74.32;31176.88;5024138;28;20022;-71
2023/11/14 06:29:48;;;;;;;35.10;4.13;;;;;;;-146.27;74.79;31236.38;5032526;28;20086;-70
2023/11/14 06:32:13;;;;;;;31.02;3.78;;;;;;;-146.27;74.29;31133.25;5037297;28;20048;-70
2023/11/14 06:34:39;;;;;;;28.67;4.68;;;;;;;-146.27;73.84;31040.06;5038498;28;20061;-72
2023/11/14 06:37:05;;;;;;;38.72;5.63;;;;;;;-146.27;74.26;31165.00;5026643;28;20439;-71
2023/11/14 06:39:30;;;;;;;29.15;5.25;;;;;;;-146.27;73.83;31049.97;5034478;28;20033;-72
2023/11/14 06:41:55;;;;;;;30.63;4.25;;;;;;;-146.27;74.40;31174.91;5038188;28;20656;-72
2023/11/14 06:44:21;;;;;;;26.17;3.95;;;;;;;-146.27;74.10;31059.91;5030949;28;20370;-73
2023/11/14 06:46:46;;;;;;;32.22;4.65;;;;;;;-146.27;74.20;31135.25;5030851;28;20033;-71
2023/11/14 06:49:12;;;;;;;31.55;5.10;;;;;;;-146.27;73.65;31143.19;5034311;28;21897;-70
2023/11/14 06:51:38;;;;;;;41.33;6.57;;;;;;;-146.27;73.50;30944.88;5030156;28;20037;-71
2023/11/14 06:54:03;;;;;;;32.63;4.90;;;;;;;-146.27;74.99;31190.78;5028030;28;20029;-71
2023/11/14 06:56:29;;;;;;;38.22;5.07;;;;;;;-146.27;73.75;31046.00;5031517;28;20033;-71
2023/11/14 06:58:54;;;;;;;32.83;4.30;;;;;;;-146.27;75.34;31186.81;5029010;28;20041;-72
2023/11/14 07:01:20;;;;;;;39.35;5.00;;;;;;;-146.27;74.05;31075.75;5030958;28;20481;-71
2023/11/14 07:03:46;;;;;;;43.13;4.53;;;;;;;-146.27;74.99;31242.34;5034119;28;20532;-71
2023/11/14 07:06:12;;;;;;;37.53;5.50;;;;;;;-146.27;74.56;31121.38;5052767;28;20493;-71
2023/11/14 07:08:37;;;;;;;38.15;5.70;;;;;;;-146.27;74.49;31131.28;5031633;28;20055;-71
2023/11/14 07:11:05;;;;;;;35.47;5.82;;;;;;;-146.27;74.00;31032.13;5029563;28;20029;-70
2023/11/14 07:13:30;;;;;;;32.67;5.38;;;;;;;-146.27;74.72;31159.03;5035361;28;20513;-70
2023/11/14 07:15:55;;;;;;;35.10;5.82;;;;;;;-146.27;74.55;31117.41;5035529;28;20018;-70
2023/11/14 07:18:21;;;;;;;29.90;4.25;;;;;;;-146.27;73.92;31042.03;5040717;28;20046;-73
2023/11/14 07:20:48;;;;;;;38.35;4.57;;;;;;;-146.27;74.27;31097.56;5032309;28;20078;-71
2023/11/14 07:23:14;;;;;;;44.55;6.55;;;;;;;-146.27;73.78;31057.91;5031124;28;20035;-71
2023/11/14 07:25:43;;;;;;;35.03;4.13;;;;;;;-146.27;74.56;31097.56;5031541;28;20521;-72
2023/11/14 07:28:12;;;;;;;34.10;5.10;;;;;;;-146.27;73.34;30966.69;5039392;28;20396;-70
2023/11/14 07:30:37;;;;;;;34.70;5.82;;;;;;;-146.27;74.05;31097.56;5031368;28;20164;-70
2023/11/14 07:33:03;;;;;;;34.17;4.57;;;;;;;-146.27;74.11;31103.53;5036699;28;20108;-72
2023/11/14 07:35:29;;;;;;;34.88;4.60;;;;;;;-146.27;73.63;30929.03;5031125;28;20049;-71
2023/11/14 07:37:55;;;;;;;44.75;6.32;;;;;;;-146.27;74.29;31176.88;5030647;28;20025;-74
2023/11/14 07:40:21;;;;;;;31.65;5.07;;;;;;;-146.27;74.33;31077.75;5040455;28;20366;-72
2023/11/14 07:42:48;;;;;;;29.60;4.20;;;;;;;-146.27;73.86;31026.19;5031405;28;20382;-73
2023/11/14 07:45:13;;;;;;;34.33;5.35;;;;;;;-146.27;74.78;31137.22;5031994;28;20440;-72
2023/11/14 07:47:42;;;;;;;32.45;5.15;;;;;;;-146.27;74.94;31097.56;5039931;28;20036;-73
2023/11/14 07:50:08;;;;;;;38.30;4.50;;;;;;;-146.27;75.83;31212.59;5042296;28;20032;-73
2023/11/14 07:52:33;;;;;;;45.15;5.55;;;;;;;-146.27;76.66;31117.41;5042412;28;20482;-72
2023/11/14 07:55:02;;;;;;;40.55;5.32;;;;;;;-146.27;79.17;31206.63;5038382;28;20045;-73
2023/11/14 07:57:32;;;;;;;43.78;6.55;;;;;;;-146.27;79.59;31232.41;5039643;28;20029;-72
2023/11/14 07:59:59;;;;;;;36.63;5.10;;;;;;;-146.27;80.58;31307.78;5051572;28;20025;-72
2023/11/14 08:02:24;;;;;;;31.00;4.53;;;;;;;-146.27;80.84;31353.38;5034864;28;20497;-71
2023/11/14 08:04:52;;;;;;;36.33;5.13;;;;;;;-146.27;80.68;31397.00;5030392;28;20160;-71
2023/11/14 08:07:18;;;;;;;35.35;4.28;;;;;;;-146.27;80.10;31371.22;5038916;28;20470;-72
2023/11/14 08:09:43;;;;;;;32.65;4.65;;;;;;;-146.27;79.65;31365.28;5051358;28;20357;-72
2023/11/14 08:12:09;;;;;;;47.03;6.15;;;;;;;-146.27;79.18;31331.56;5038571;28;20079;-72
2023/11/14 08:14:34;;;;;;;35.22;6.40;;;;;;;-146.27;78.38;31236.38;5051650;28;20894;-72
2023/11/14 08:17:00;;;;;;;36.13;5.90;;;;;;;-146.27;78.24;31268.13;5051249;28;20048;-72
2023/11/14 08:19:25;;;;;;;41.33;5.28;;;;;;;-146.27;76.88;31129.28;5035622;28;20027;-70
2023/11/14 08:21:50;;;;;;;30.50;4.88;;;;;;;-146.27;77.12;31188.78;5031583;28;20497;-70
2023/11/14 08:24:16;;;;;;;34.22;5.10;;;;;;;-146.27;76.20;31055.94;5042121;28;20035;-72
2023/11/14 08:26:41;;;;;;;46.53;6.07;;;;;;;-146.27;75.76;31046.00;5046830;28;20073;-72
2023/11/14 08:29:06;;;;;;;39.55;5.07;;;;;;;-146.27;76.30;31186.81;5028257;28;20092;-72
2023/11/14 08:31:32;;;;;;;30.88;4.50;;;;;;;-146.27;75.70;31121.38;5031141;28;20508;-72
2023/11/14 08:33:57;;;;;;;32.65;4.45;;;;;;;-146.27;75.87;31097.56;5029562;28;20040;-72
2023/11/14 08:36:23;;;;;;;31.35;4.10;;;;;;;-146.27;75.82;31159.03;5030833;28;20025;-72
2023/11/14 08:38:48;;;;;;;33.58;5.25;;;;;;;-146.27;75.48;31103.53;5031124;28;20032;-72
2023/11/14 08:41:13;;;;;;;40.17;5.22;;;;;;;-146.27;75.16;31079.72;5031002;28;20021;-72
2023/11/14 08:43:40;;;;;;;43.53;6.13;;;;;;;-146.27;74.82;31008.34;5030896;28;20026;-71
2023/11/14 08:46:05;;;;;;;30.45;3.95;;;;;;;-146.27;74.40;31057.91;5032376;28;20033;-71
2023/11/14 08:48:31;;;;;;;44.17;5.18;;;;;;;-146.27;75.15;31131.28;5030912;28;20043;-71
2023/11/14 08:50:56;;;;;;;35.55;5.15;;;;;;;-146.27;75.38;31119.38;5030101;28;20025;-70
2023/11/14 08:53:22;;;;;;;34.25;5.35;;;;;;;-146.27;74.27;30980.56;5042262;28;20025;-71
2023/11/14 08:55:47;;;;;;;35.03;4.13;;;;;;;-146.27;75.33;31220.53;5030416;28;20037;-70
2023/11/14 08:58:12;;;;;;;32.40;4.75;;;;;;;-146.27;74.55;31089.63;5030667;28;20408;-72
2023/11/14 09:00:38;;;;;;;39.65;6.03;;;;;;;-146.27;73.98;30974.63;5027916;28;20025;-70
2023/11/14 09:03:04;;;;;;;24.00;4.13;;;;;;;-146.27;74.25;31093.59;5049613;28;20033;-71
2023/11/14 09:05:30;;;;;;;27.85;4.28;;;;;;;-146.27;74.14;30988.50;5035807;28;20083;-72
2023/11/14 09:07:55;;;;;;;41.55;7.07;;;;;;;-146.27;73.10;30841.78;5030576;28;20029;-70
2023/11/14 09:10:21;;;;;;;33.08;4.72;;;;;;;-146.27;73.08;30879.44;5029337;28;20093;-70
2023/11/14 09:12:47;;;;;;;30.02;4.82;;;;;;;-146.27;72.43;30816.00;5031954;28;20025;-71
2023/11/14 09:15:14;;;;;;;35.72;5.80;;;;;;;-146.27;72.96;30869.53;5029478;28;20029;-70
2023/11/14 09:17:40;;;;;;;34.60;4.28;;;;;;;-146.27;72.19;30762.47;5038893;28;20144;-70
2023/11/14 09:20:07;;;;;;;20.92;3.88;;;;;;;-146.27;72.00;30756.50;5050308;28;20096;-70
2023/11/14 09:22:33;;;;;;;36.83;4.75;;;;;;;-146.27;72.88;30919.09;5049301;28;20074;-70
2023/11/14 09:24:59;;;;;;;36.83;5.57;;;;;;;-146.27;72.27;30819.97;5050459;28;20024;-71
2023/11/14 09:27:25;;;;;;;34.38;4.72;;;;;;;-146.27;72.30;30903.25;5050308;28;20049;-70
2023/11/14 09:29:50;;;;;;;30.02;4.50;;;;;;;-146.27;71.53;30683.16;5038531;28;20071;-70
2023/11/14 09:32:19;;;;;;;29.25;4.43;;;;;;;-146.27;70.86;30615.72;5029054;28;20029;-70
2023/11/14 09:34:47;;;;;;;41.65;6.20;;;;;;;-146.27;71.06;30591.94;5038619;28;20020;-70
2023/11/14 09:37:13;;;;;;;37.25;5.82;;;;;;;-146.27;70.29;30671.25;5050173;28;20029;-70
2023/11/14 09:39:38;;;;;;;33.72;4.35;;;;;;;-146.27;70.48;30657.38;5048120;28;20074;-70
2023/11/14 09:42:05;;;;;;;34.92;4.65;;;;;;;-146.27;70.52;30669.25;5029905;28;20389;-70
2023/11/14 09:44:30;;;;;;;27.55;4.18;;;;;;;-146.27;70.77;30697.03;5030193;28;20576;-70
2023/11/14 09:46:58;;;;;;;23.35;3.95;;;;;;;-146.27;70.76;30679.19;5030500;28;20040;-70
2023/11/14 09:49:24;;;;;;;25.40;3.60;;;;;;;-146.27;70.69;30744.63;5035140;28;20504;-70
2023/11/14 09:51:50;;;;;;;27.38;5.15;;;;;;;-146.27;70.21;30748.56;5025806;28;20033;-71
2023/11/14 09:54:17;;;;;;;25.55;5.43;;;;;;;-146.27;70.87;30776.34;5028593;28;20045;-71
2023/11/14 09:56:47;;;;;;;28.48;4.57;;;;;;;-146.27;70.84;30816.00;5030651;28;20116;-72
2023/11/14 09:59:13;;;;;;;26.10;4.07;;;;;;;-146.27;70.79;30792.19;5049333;28;20036;-70
2023/11/14 10:01:39;;;;;;;31.55;4.95;;;;;;;-146.27;70.79;30744.63;5040450;28;20020;-70
2023/11/14 10:04:06;;;;;;;33.33;4.65;;;;;;;-146.27;70.20;30647.47;5010197;28;20104;-70
2023/11/14 10:06:42;;;;;;;26.02;3.63;;;;;;;-146.27;70.51;30732.72;5033926;28;20492;-70
2023/11/14 10:09:09;;;;;;;39.65;4.93;;;;;;;-146.27;70.35;30718.84;5035249;28;20037;-70
2023/11/14 10:11:43;;;;;;;29.40;3.65;;;;;;;-146.27;71.08;30778.31;5035233;28;20029;-70
2023/11/14 10:14:08;;;;;;;23.23;6.25;;;;;;;-146.27;70.95;30814.00;5038461;28;20105;-71
2023/11/14 10:16:35;;;;;;;35.70;4.47;;;;;;;-146.27;70.45;30772.38;5029639;28;20497;-70
2023/11/14 10:19:10;;;;;;;31.80;4.55;;;;;;;-146.27;70.04;30653.41;5046610;28;20024;-69
2023/11/14 10:21:35;;;;;;;31.70;5.43;;;;;;;-146.27;70.74;30756.50;5049912;28;20021;-70
2023/11/14 10:24:01;;;;;;;26.92;4.85;;;;;;;-146.27;70.15;30623.66;5047457;28;20496;-71
2023/11/14 10:26:26;;;;;;;34.92;4.82;;;;;;;-146.27;70.13;30613.75;5041463;28;20083;-71
2023/11/14 10:28:54;;;;;;;24.02;3.85;;;;;;;-146.27;69.97;30502.72;5028437;28;20022;-70
2023/11/14 10:31:33;;;;;;;35.45;4.93;;;;;;;-146.27;69.49;30433.31;5029831;28;20022;-71
2023/11/14 10:33:59;;;;;;;31.38;5.25;;;;;;;-146.27;71.03;30720.81;5030317;28;20075;-71
2023/11/14 10:36:24;;;;;;;27.50;4.53;;;;;;;-146.27;70.37;30677.19;5049896;28;20032;-71
2023/11/14 10:39:05;;;;;;;29.92;4.90;;;;;;;-146.27;69.53;30552.28;5049484;28;20021;-71
2023/11/14 10:41:32;;;;;;;38.25;5.47;;;;;;;-146.27;69.96;30587.97;5049462;28;20025;-71
2023/11/14 10:44:05;;;;;;;32.08;4.90;;;;;;;-146.27;69.93;30605.81;5049313;28;20485;-71
2023/11/14 10:46:32;;;;;;;27.02;4.82;;;;;;;-146.27;69.17;30554.25;5038756;28;20114;-71
2023/11/14 10:49:09;;;;;;;33.72;4.53;;;;;;;-146.27;69.18;30474.97;5050821;28;20095;-71
2023/11/14 10:51:36;;;;;;;33.08;3.67;;;;;;;-146.27;69.70;30595.91;5053109;28;20370;-71
2023/11/14 10:54:06;;;;;;;38.88;5.45;;;;;;;-146.27;70.07;30566.16;5052225;28;20037;-71
2023/11/14 10:56:36;;;;;;;30.42;3.63;;;;;;;-146.27;69.85;30476.94;5031995;28;20036;-71
2023/11/14 10:59:10;;;;;;;27.38;5.60;;;;;;;-146.27;68.91;30264.81;5049530;28;20029;-71
2023/11/14 11:01:36;;;;;;;29.33;5.13;;;;;;;-146.27;69.96;30508.66;5043250;28;20052;-71
2023/11/14 11:04:04;;;;;;;33.80;5.13;;;;;;;-146.27;70.10;30532.47;5026651;28;20045;-71
2023/11/14 11:06:31;;;;;;;34.60;5.43;;;;;;;-146.27;69.98;30348.06;5030106;28;20051;-70